Time;durP1;ratioP1;P1;durP2;ratioP2;P2;SDS_P1;SDS_P2;PMS_P1;PMS_P2;Temp;Humidity;BMP_temperature;BMP_pressure;BME280_temperature;BME280_humidity;BME280_pressure;Samples;Min_cycle;Max_cycle;Signal;HPM_P1;HPM_P2
2024/01/20 00:00:25;;;;;;;21.23;8.40;;;;;;;;;;6140022;28;20309;-70
2024/01/20 00:03:29;;;;;;;19.17;8.87;;;;;;;;;;6122278;29;20296;-71
2024/01/20 00:06:33;;;;;;;14.60;8.93;;;;;;;;;;6138893;29;20283;-71
2024/01/20 00:09:38;;;;;;;21.67;9.13;;;;;;;;;;6137165;29;20310;-70
2024/01/20 00:12:53;;;;;;;20.37;10.00;;;;;;;;;;6137580;29;20290;-71
2024/01/20 00:15:58;;;;;;;21.63;8.50;;;;;;;;;;6138606;29;20468;-70
2024/01/20 00:19:03;;;;;;;16.70;9.07;;;;;;;;;;6136760;29;20306;-70
2024/01/20 00:22:07;;;;;;;17.20;8.60;;;;;;;;;;6120103;29;20315;-70
2024/01/20 00:25:11;;;;;;;16.63;8.73;;;;;;;;;;6150620;28;20313;-69
2024/01/20 00:28:17;;;;;;;15.83;9.40;;;;;;;;;;6160565;28;20301;-71
2024/01/20 00:31:23;;;;;;;16.47;8.67;;;;;;;;;;6159142;28;20298;-70
2024/01/20 00:34:27;;;;;;;17.73;9.40;;;;;;;;;;6112696;29;20622;-70
2024/01/20 00:37:31;;;;;;;15.40;9.20;;;;;;;;;;6115263;29;20303;-70
2024/01/20 00:40:35;;;;;;;18.17;9.20;;;;;;;;;;6113123;29;20306;-69
2024/01/20 00:43:39;;;;;;;15.80;7.73;;;;;;;;;;6095019;29;20619;-70
2024/01/20 00:46:46;;;;;;;14.80;7.93;;;;;;;;;;6097315;29;20289;-69
2024/01/20 00:49:50;;;;;;;17.27;8.33;;;;;;;;;;6113528;29;20547;-70
2024/01/20 00:52:54;;;;;;;9.70;7.50;;;;;;;;;;6112749;29;20313;-71
2024/01/20 00:55:58;;;;;;;11.13;8.10;;;;;;;;;;6112945;29;20317;-69
2024/01/20 00:59:02;;;;;;;17.63;8.23;;;;;;;;;;6111982;29;20301;-69
2024/01/20 01:02:07;;;;;;;9.87;7.30;;;;;;;;;;6113225;29;20298;-70
2024/01/20 01:05:11;;;;;;;11.77;7.70;;;;;;;;;;6112810;29;20590;-69
2024/01/20 01:08:15;;;;;;;12.70;7.53;;;;;;;;;;6112672;29;20394;-70
2024/01/20 01:11:19;;;;;;;12.30;7.97;;;;;;;;;;6141705;28;20296;-69
2024/01/20 01:14:23;;;;;;;16.07;8.77;;;;;;;;;;6147348;28;20321;-70
2024/01/20 01:17:29;;;;;;;15.00;8.30;;;;;;;;;;6152212;28;20308;-70
2024/01/20 01:20:33;;;;;;;11.33;7.93;;;;;;;;;;6159849;28;20620;-70
2024/01/20 01:23:37;;;;;;;16.43;8.57;;;;;;;;;;6148336;28;20297;-70
2024/01/20 01:26:41;;;;;;;18.20;8.47;;;;;;;;;;6160606;28;20296;-70
2024/01/20 01:29:46;;;;;;;13.33;8.40;;;;;;;;;;6160026;28;20535;-70
2024/01/20 01:32:51;;;;;;;12.53;8.50;;;;;;;;;;6158036;28;20296;-69
2024/01/20 01:35:55;;;;;;;18.03;7.80;;;;;;;;;;6160298;28;20306;-69
2024/01/20 01:39:00;;;;;;;14.50;7.53;;;;;;;;;;6160095;28;20293;-69
2024/01/20 01:42:04;;;;;;;12.33;7.93;;;;;;;;;;6151790;28;20300;-69
2024/01/20 01:45:09;;;;;;;9.40;7.30;;;;;;;;;;6158063;28;20410;-69
2024/01/20 01:48:15;;;;;;;10.37;7.20;;;;;;;;;;6160135;28;20266;-69
2024/01/20 01:51:19;;;;;;;8.27;6.87;;;;;;;;;;6172061;28;20473;-70
2024/01/20 01:54:24;;;;;;;11.10;6.77;;;;;;;;;;6158691;28;20301;-70
2024/01/20 01:57:29;;;;;;;9.60;6.80;;;;;;;;;;6160202;28;20302;-69
2024/01/20 02:00:33;;;;;;;11.00;6.57;;;;;;;;;;6156138;28;20297;-70
2024/01/20 02:03:39;;;;;;;12.47;6.93;;;;;;;;;;6159632;28;20297;-70
2024/01/20 02:06:43;;;;;;;8.90;6.87;;;;;;;;;;6159854;28;20428;-70
2024/01/20 02:09:47;;;;;;;13.27;7.40;;;;;;;;;;6161559;28;20297;-71
2024/01/20 02:12:52;;;;;;;9.43;7.50;;;;;;;;;;6162577;28;20293;-70
2024/01/20 02:15:56;;;;;;;9.77;6.90;;;;;;;;;;6169727;28;20609;-70
2024/01/20 02:19:04;;;;;;;7.87;6.43;;;;;;;;;;6164366;28;20302;-70
2024/01/20 02:22:11;;;;;;;13.47;7.80;;;;;;;;;;6161652;28;20290;-70
2024/01/20 02:25:16;;;;;;;10.63;7.23;;;;;;;;;;6161712;28;20302;-71
2024/01/20 02:28:21;;;;;;;8.70;6.87;;;;;;;;;;6162169;28;20310;-70
2024/01/20 02:31:25;;;;;;;11.73;7.50;;;;;;;;;;6164528;28;20301;-69
2024/01/20 02:34:28;;;;;;;11.63;7.50;;;;;;;;;;6159729;28;20294;-71
2024/01/20 02:37:34;;;;;;;12.00;7.73;;;;;;;;;;6163684;28;20479;-69
2024/01/20 02:40:38;;;;;;;12.53;7.83;;;;;;;;;;6162553;28;20483;-69
2024/01/20 02:43:42;;;;;;;12.77;8.57;;;;;;;;;;6163229;28;20460;-70
2024/01/20 02:46:46;;;;;;;12.17;8.57;;;;;;;;;;6162477;28;20301;-69
2024/01/20 02:49:50;;;;;;;16.30;8.17;;;;;;;;;;6162750;28;20296;-69
2024/01/20 02:52:55;;;;;;;12.43;8.17;;;;;;;;;;6163244;28;20301;-69
2024/01/20 02:55:59;;;;;;;9.50;7.37;;;;;;;;;;6163714;28;20302;-69
2024/01/20 02:59:03;;;;;;;10.87;7.03;;;;;;;;;;6162945;28;20600;-68
2024/01/20 03:02:07;;;;;;;11.40;7.97;;;;;;;;;;6163473;28;20574;-69
2024/01/20 03:05:11;;;;;;;11.47;7.77;;;;;;;;;;6162488;28;20555;-69
2024/01/20 03:08:16;;;;;;;11.20;7.33;;;;;;;;;;6149234;28;20302;-69
2024/01/20 03:11:20;;;;;;;9.10;7.20;;;;;;;;;;6170308;28;20298;-69
2024/01/20 03:14:24;;;;;;;15.97;7.63;;;;;;;;;;6160611;28;20302;-70
2024/01/20 03:17:29;;;;;;;11.67;7.80;;;;;;;;;;6162870;28;20318;-69
2024/01/20 03:20:33;;;;;;;14.47;7.80;;;;;;;;;;6161845;28;20297;-70
2024/01/20 03:23:38;;;;;;;10.73;7.27;;;;;;;;;;6162490;28;20292;-70
2024/01/20 03:26:45;;;;;;;10.87;7.30;;;;;;;;;;6162179;28;20424;-69
2024/01/20 03:29:49;;;;;;;16.27;7.57;;;;;;;;;;6162274;28;20289;-70
2024/01/20 03:32:53;;;;;;;12.47;7.17;;;;;;;;;;6132394;29;20305;-70
2024/01/20 03:35:57;;;;;;;9.70;7.00;;;;;;;;;;6134394;29;20467;-70
2024/01/20 03:39:03;;;;;;;10.07;6.47;;;;;;;;;;6109837;29;20450;-70
2024/01/20 03:42:07;;;;;;;7.47;6.00;;;;;;;;;;6138891;29;20446;-70
2024/01/20 03:45:11;;;;;;;8.37;6.20;;;;;;;;;;6136794;29;20303;-70
2024/01/20 03:48:15;;;;;;;10.47;6.40;;;;;;;;;;6137341;29;20299;-69
2024/01/20 03:51:21;;;;;;;9.03;6.07;;;;;;;;;;6138132;29;20379;-70
2024/01/20 03:54:26;;;;;;;7.83;6.03;;;;;;;;;;6112240;29;20307;-70
2024/01/20 03:57:30;;;;;;;10.40;6.43;;;;;;;;;;6138363;29;20299;-70
2024/01/20 04:00:34;;;;;;;9.77;6.23;;;;;;;;;;6136956;29;20293;-69
2024/01/20 04:03:38;;;;;;;9.40;6.07;;;;;;;;;;6127900;29;20298;-69
2024/01/20 04:06:42;;;;;;;6.20;5.70;;;;;;;;;;6132708;28;20315;-69
2024/01/20 04:09:47;;;;;;;9.03;6.03;;;;;;;;;;6127708;29;20306;-71
2024/01/20 04:12:51;;;;;;;6.50;5.40;;;;;;;;;;6153410;28;20302;-70
2024/01/20 04:15:55;;;;;;;8.13;6.20;;;;;;;;;;6162155;28;20297;-70
2024/01/20 04:18:59;;;;;;;9.53;5.40;;;;;;;;;;6154682;28;20290;-69
2024/01/20 04:22:04;;;;;;;8.20;5.43;;;;;;;;;;6136726;29;20304;-70
2024/01/20 04:25:09;;;;;;;5.97;5.20;;;;;;;;;;6149616;28;20582;-70
2024/01/20 04:28:13;;;;;;;6.93;5.40;;;;;;;;;;6161169;28;20318;-69
2024/01/20 04:31:17;;;;;;;5.17;4.77;;;;;;;;;;6159919;28;20298;-70
2024/01/20 04:34:21;;;;;;;5.17;4.67;;;;;;;;;;6157929;28;20302;-70
2024/01/20 04:37:25;;;;;;;5.00;4.60;;;;;;;;;;6160912;28;20299;-69
2024/01/20 04:40:31;;;;;;;4.90;4.50;;;;;;;;;;6159780;28;20309;-70
2024/01/20 04:43:35;;;;;;;8.93;4.97;;;;;;;;;;6160445;28;20306;-69
2024/01/20 04:46:39;;;;;;;5.43;4.90;;;;;;;;;;6161107;28;20303;-69
2024/01/20 04:49:43;;;;;;;6.60;4.97;;;;;;;;;;6159836;28;20468;-69
2024/01/20 04:52:47;;;;;;;5.00;4.63;;;;;;;;;;6160620;28;20298;-69
2024/01/20 04:55:52;;;;;;;5.27;4.73;;;;;;;;;;6160513;28;20348;-69
2024/01/20 04:58:56;;;;;;;4.47;4.20;;;;;;;;;;6160301;28;20343;-69
2024/01/20 05:02:00;;;;;;;4.83;4.43;;;;;;;;;;6157185;28;20287;-69
2024/01/20 05:05:05;;;;;;;5.47;4.17;;;;;;;;;;6159338;28;20295;-69
2024/01/20 05:08:09;;;;;;;4.73;4.23;;;;;;;;;;6160237;28;20576;-69
2024/01/20 05:11:15;;;;;;;5.20;4.77;;;;;;;;;;6160599;28;20384;-70
2024/01/20 05:14:18;;;;;;;4.93;4.53;;;;;;;;;;6160208;28;20311;-69
2024/01/20 05:17:22;;;;;;;6.27;4.40;;;;;;;;;;6159756;28;20491;-71
2024/01/20 05:20:26;;;;;;;7.83;4.60;;;;;;;;;;6148774;28;20306;-69
2024/01/20 05:23:30;;;;;;;4.50;4.20;;;;;;;;;;6160289;28;20302;-69
2024/01/20 05:26:36;;;;;;;4.53;4.23;;;;;;;;;;6160624;28;20295;-69
2024/01/20 05:29:40;;;;;;;4.43;3.93;;;;;;;;;;6159784;28;20303;-69
2024/01/20 05:32:43;;;;;;;4.97;4.37;;;;;;;;;;6160071;28;20290;-69
2024/01/20 05:35:50;;;;;;;3.80;3.60;;;;;;;;;;6157161;28;20291;-70
2024/01/20 05:38:54;;;;;;;4.27;3.87;;;;;;;;;;6159832;28;20528;-70
2024/01/20 05:42:00;;;;;;;4.87;3.77;;;;;;;;;;6160415;28;20298;-70
2024/01/20 05:45:08;;;;;;;4.53;4.20;;;;;;;;;;6162224;28;20339;-70
2024/01/20 05:48:12;;;;;;;6.00;4.20;;;;;;;;;;6164550;28;20315;-70
2024/01/20 05:51:16;;;;;;;4.93;4.43;;;;;;;;;;6165137;28;20301;-70
2024/01/20 05:54:20;;;;;;;8.40;4.00;;;;;;;;;;6164273;28;20315;-71
2024/01/20 05:57:26;;;;;;;3.97;3.67;;;;;;;;;;6164862;28;20304;-70
2024/01/20 06:00:30;;;;;;;4.07;3.87;;;;;;;;;;6169133;28;20402;-70
2024/01/20 06:03:34;;;;;;;7.13;3.77;;;;;;;;;;6164622;28;20296;-70
2024/01/20 06:06:38;;;;;;;4.43;4.10;;;;;;;;;;6164593;28;20294;-70
2024/01/20 06:09:42;;;;;;;4.20;3.90;;;;;;;;;;6163842;28;20300;-70
2024/01/20 06:12:48;;;;;;;4.50;4.20;;;;;;;;;;6164122;28;20296;-70
2024/01/20 06:15:51;;;;;;;3.47;3.23;;;;;;;;;;6164772;28;20310;-70
2024/01/20 06:18:55;;;;;;;5.77;4.30;;;;;;;;;;6164232;28;20294;-69
2024/01/20 06:21:59;;;;;;;7.40;4.00;;;;;;;;;;6164976;28;20301;-70
2024/01/20 06:25:04;;;;;;;4.00;3.77;;;;;;;;;;6164133;28;20315;-70
2024/01/20 06:28:10;;;;;;;3.97;3.60;;;;;;;;;;6163428;28;20299;-70
2024/01/20 06:31:24;;;;;;;3.97;3.67;;;;;;;;;;6163863;28;20381;-69
2024/01/20 06:34:28;;;;;;;7.07;4.27;;;;;;;;;;6115781;29;20308;-69
2024/01/20 06:37:32;;;;;;;4.17;3.50;;;;;;;;;;6116652;29;20382;-70
2024/01/20 06:40:36;;;;;;;4.13;3.83;;;;;;;;;;6115433;29;20293;-69
2024/01/20 06:43:41;;;;;;;4.83;4.20;;;;;;;;;;6098723;29;20303;-69
2024/01/20 06:46:45;;;;;;;4.53;4.23;;;;;;;;;;6099187;29;20609;-70
2024/01/20 06:49:49;;;;;;;5.10;4.10;;;;;;;;;;6114529;29;20334;-71
2024/01/20 06:52:53;;;;;;;5.90;3.80;;;;;;;;;;6115620;29;20303;-71
2024/01/20 06:55:57;;;;;;;6.00;3.83;;;;;;;;;;6113555;29;20295;-70
2024/01/20 06:59:03;;;;;;;3.97;3.67;;;;;;;;;;6115565;29;20326;-70
2024/01/20 07:02:07;;;;;;;7.23;3.70;;;;;;;;;;6115926;29;20303;-70
2024/01/20 07:05:11;;;;;;;4.23;3.90;;;;;;;;;;6113568;29;20508;-70
2024/01/20 07:08:15;;;;;;;3.60;3.33;;;;;;;;;;6099118;29;20302;-70
2024/01/20 07:11:19;;;;;;;4.80;3.30;;;;;;;;;;6146429;28;20304;-70
2024/01/20 07:14:25;;;;;;;3.30;3.20;;;;;;;;;;6144255;28;20299;-71
2024/01/20 07:17:28;;;;;;;3.40;3.20;;;;;;;;;;6162317;28;20437;-70
2024/01/20 07:20:32;;;;;;;3.20;3.10;;;;;;;;;;6162477;28;20489;-70
2024/01/20 07:23:37;;;;;;;3.60;3.40;;;;;;;;;;6162374;28;20300;-70
2024/01/20 07:26:41;;;;;;;4.10;3.80;;;;;;;;;;6156430;28;20328;-70
2024/01/20 07:29:46;;;;;;;3.13;2.90;;;;;;;;;;6162644;28;20288;-70
2024/01/20 07:32:50;;;;;;;5.27;3.90;;;;;;;;;;6150610;28;20339;-72
2024/01/20 07:35:54;;;;;;;3.40;3.17;;;;;;;;;;6136639;29;20275;-71
2024/01/20 07:38:58;;;;;;;3.10;3.00;;;;;;;;;;6138250;29;20296;-70
2024/01/20 07:42:02;;;;;;;3.67;3.30;;;;;;;;;;6138733;29;20353;-70
2024/01/20 07:45:08;;;;;;;4.00;3.80;;;;;;;;;;6138198;29;20302;-69
2024/01/20 07:48:12;;;;;;;4.90;4.50;;;;;;;;;;6137302;29;20300;-70
2024/01/20 07:51:16;;;;;;;5.30;4.07;;;;;;;;;;6138453;29;20473;-70
2024/01/20 07:54:20;;;;;;;4.40;4.10;;;;;;;;;;6137567;29;20301;-70
2024/01/20 07:57:24;;;;;;;4.40;4.10;;;;;;;;;;6138255;29;20303;-70
2024/01/20 08:00:29;;;;;;;4.40;4.10;;;;;;;;;;6137723;29;20314;-70
2024/01/20 08:03:33;;;;;;;4.27;3.93;;;;;;;;;;6137772;29;20290;-70
2024/01/20 08:06:37;;;;;;;3.93;3.60;;;;;;;;;;6137980;29;20298;-69
2024/01/20 08:09:42;;;;;;;4.30;3.93;;;;;;;;;;6139708;29;20329;-70
2024/01/20 08:12:46;;;;;;;5.73;3.97;;;;;;;;;;6161197;28;20281;-70
2024/01/20 08:15:51;;;;;;;3.53;3.33;;;;;;;;;;6160587;28;20298;-70
2024/01/20 08:18:56;;;;;;;3.90;3.60;;;;;;;;;;6160886;28;20305;-70
2024/01/20 08:22:01;;;;;;;4.13;3.80;;;;;;;;;;6161472;28;20427;-70
2024/01/20 08:25:06;;;;;;;4.00;3.50;;;;;;;;;;6160838;28;20308;-70
2024/01/20 08:28:10;;;;;;;3.77;3.57;;;;;;;;;;6160711;28;20296;-70
2024/01/20 08:31:16;;;;;;;3.67;3.47;;;;;;;;;;6161406;28;20301;-70
2024/01/20 08:34:20;;;;;;;4.33;3.50;;;;;;;;;;6160770;28;20301;-70
2024/01/20 08:37:24;;;;;;;3.67;3.47;;;;;;;;;;6161809;28;20298;-71
2024/01/20 08:40:28;;;;;;;3.77;3.57;;;;;;;;;;6143416;28;20344;-70
2024/01/20 08:43:32;;;;;;;3.83;3.60;;;;;;;;;;6160959;28;20299;-70
2024/01/20 08:46:38;;;;;;;3.77;3.57;;;;;;;;;;6161603;28;20314;-70
2024/01/20 08:49:42;;;;;;;4.03;3.57;;;;;;;;;;6160622;28;20293;-71
2024/01/20 08:52:46;;;;;;;3.70;3.40;;;;;;;;;;6160223;28;20286;-71
2024/01/20 08:55:50;;;;;;;4.30;4.00;;;;;;;;;;6160368;28;20302;-69
2024/01/20 08:58:54;;;;;;;4.23;3.57;;;;;;;;;;6160468;28;20297;-70
2024/01/20 09:01:59;;;;;;;3.63;3.47;;;;;;;;;;6161198;28;20297;-69
2024/01/20 09:05:03;;;;;;;3.97;3.67;;;;;;;;;;6160036;28;20603;-70
2024/01/20 09:08:09;;;;;;;4.13;3.67;;;;;;;;;;6160241;28;20301;-70
2024/01/20 09:11:13;;;;;;;4.37;4.07;;;;;;;;;;6145774;28;20336;-71
2024/01/20 09:14:17;;;;;;;4.13;3.80;;;;;;;;;;6135745;29;20389;-69
2024/01/20 09:17:22;;;;;;;4.47;4.07;;;;;;;;;;6136952;29;20303;-69
2024/01/20 09:20:26;;;;;;;4.27;3.97;;;;;;;;;;6134731;29;20302;-71
2024/01/20 09:23:30;;;;;;;3.90;3.70;;;;;;;;;;6136340;29;20296;-70
2024/01/20 09:26:34;;;;;;;4.37;4.07;;;;;;;;;;6135455;28;20301;-70
2024/01/20 09:29:38;;;;;;;4.57;4.20;;;;;;;;;;6136206;29;20305;-70
2024/01/20 09:32:45;;;;;;;5.93;4.13;;;;;;;;;;6119845;28;20299;-71
2024/01/20 09:35:49;;;;;;;4.50;4.20;;;;;;;;;;6136571;29;20570;-70
2024/01/20 09:38:53;;;;;;;5.30;3.83;;;;;;;;;;6135818;28;20296;-70
2024/01/20 09:41:57;;;;;;;4.43;4.13;;;;;;;;;;6136489;29;20294;-69
2024/01/20 09:45:01;;;;;;;4.50;4.20;;;;;;;;;;6136251;29;20306;-71
2024/01/20 09:48:08;;;;;;;5.73;3.87;;;;;;;;;;6135089;28;20300;-72
2024/01/20 09:51:12;;;;;;;3.93;3.63;;;;;;;;;;6136314;29;20298;-72
2024/01/20 09:54:16;;;;;;;4.47;4.13;;;;;;;;;;6135695;28;20298;-72
2024/01/20 09:57:21;;;;;;;3.63;3.53;;;;;;;;;;6136356;29;20336;-71
2024/01/20 10:00:26;;;;;;;3.87;3.67;;;;;;;;;;6135658;28;20310;-71
2024/01/20 10:03:31;;;;;;;4.97;3.73;;;;;;;;;;6135342;29;20290;-72
2024/01/20 10:06:36;;;;;;;4.17;3.77;;;;;;;;;;6136174;29;20558;-70
2024/01/20 10:09:40;;;;;;;4.10;3.80;;;;;;;;;;6135193;29;20563;-70
2024/01/20 10:12:51;;;;;;;4.33;3.90;;;;;;;;;;6136318;29;20298;-70
2024/01/20 10:15:55;;;;;;;5.17;3.70;;;;;;;;;;6132109;29;20553;-70
2024/01/20 10:19:01;;;;;;;3.70;3.50;;;;;;;;;;6135428;29;20299;-69
2024/01/20 10:22:08;;;;;;;3.60;3.40;;;;;;;;;;6137605;29;20469;-70
2024/01/20 10:25:18;;;;;;;3.83;3.50;;;;;;;;;;6147426;28;20299;-69
2024/01/20 10:28:24;;;;;;;3.90;3.53;;;;;;;;;;6159491;28;20353;-72
2024/01/20 10:31:27;;;;;;;5.47;3.70;;;;;;;;;;6160419;28;20301;-69
2024/01/20 10:34:33;;;;;;;3.63;3.33;;;;;;;;;;6103507;29;20298;-74
2024/01/20 10:37:40;;;;;;;6.00;3.83;;;;;;;;;;6140212;29;20379;-70
2024/01/20 10:40:45;;;;;;;3.47;3.10;;;;;;;;;;6139123;29;20302;-70
2024/01/20 10:43:52;;;;;;;4.20;3.90;;;;;;;;;;6139723;29;20318;-70
2024/01/20 10:46:57;;;;;;;3.87;3.50;;;;;;;;;;6140157;29;20302;-69
2024/01/20 10:50:05;;;;;;;3.60;3.40;;;;;;;;;;6130518;29;20322;-70
2024/01/20 10:53:09;;;;;;;3.87;3.67;;;;;;;;;;6139903;29;20313;-69
2024/01/20 10:56:14;;;;;;;3.90;3.67;;;;;;;;;;6138279;29;20294;-69
2024/01/20 10:59:18;;;;;;;3.93;3.63;;;;;;;;;;6138885;29;20306;-70
2024/01/20 11:02:23;;;;;;;3.80;3.60;;;;;;;;;;6138334;29;20319;-71
2024/01/20 11:05:28;;;;;;;3.80;3.60;;;;;;;;;;6138995;29;20493;-69
2024/01/20 11:08:32;;;;;;;3.80;3.63;;;;;;;;;;6139362;29;20302;-69
2024/01/20 11:11:36;;;;;;;3.57;3.40;;;;;;;;;;6153335;28;20490;-68
2024/01/20 11:14:41;;;;;;;4.07;3.77;;;;;;;;;;6160061;28;20312;-69
2024/01/20 11:17:45;;;;;;;4.07;3.77;;;;;;;;;;6162771;28;20298;-68
2024/01/20 11:21:01;;;;;;;3.77;3.57;;;;;;;;;;6162474;28;20301;-69
2024/01/20 11:24:06;;;;;;;4.03;3.83;;;;;;;;;;6162297;28;20317;-70
2024/01/20 11:27:10;;;;;;;4.60;4.20;;;;;;;;;;6137088;28;20308;-71
2024/01/20 11:30:15;;;;;;;3.77;3.57;;;;;;;;;;6162877;28;20296;-70
2024/01/20 11:33:20;;;;;;;3.73;3.60;;;;;;;;;;6120015;29;20305;-69
2024/01/20 11:36:28;;;;;;;4.10;3.80;;;;;;;;;;6139705;29;20455;-69
2024/01/20 11:39:32;;;;;;;3.63;3.43;;;;;;;;;;6136863;29;20294;-70
2024/01/20 11:42:38;;;;;;;3.87;3.57;;;;;;;;;;6139058;29;20306;-69
2024/01/20 11:45:42;;;;;;;5.60;3.80;;;;;;;;;;6140071;29;20460;-68
2024/01/20 11:48:47;;;;;;;3.47;3.23;;;;;;;;;;6137657;29;20305;-69
2024/01/20 11:51:53;;;;;;;4.27;3.70;;;;;;;;;;6139084;29;20298;-70
2024/01/20 11:54:58;;;;;;;3.80;3.50;;;;;;;;;;6138333;29;20313;-70
2024/01/20 11:58:02;;;;;;;4.13;3.80;;;;;;;;;;6137020;29;20316;-69
2024/01/20 12:01:06;;;;;;;4.10;3.70;;;;;;;;;;6138683;29;20492;-70
2024/01/20 12:04:10;;;;;;;3.73;3.53;;;;;;;;;;6111005;29;20301;-70
2024/01/20 12:07:15;;;;;;;4.87;4.37;;;;;;;;;;6137231;29;20353;-70
2024/01/20 12:10:19;;;;;;;4.63;4.13;;;;;;;;;;6128085;29;20315;-68
2024/01/20 12:13:24;;;;;;;4.30;4.00;;;;;;;;;;6160917;28;20313;-69
2024/01/20 12:16:28;;;;;;;4.10;3.90;;;;;;;;;;6161376;28;20478;-70
2024/01/20 12:19:32;;;;;;;4.47;4.07;;;;;;;;;;6142134;28;20288;-70
2024/01/20 12:22:39;;;;;;;3.87;3.67;;;;;;;;;;6144342;29;20504;-70
2024/01/20 12:25:42;;;;;;;4.43;4.03;;;;;;;;;;6160867;28;20306;-70
2024/01/20 12:28:50;;;;;;;4.63;4.27;;;;;;;;;;6160035;28;20317;-69
2024/01/20 12:31:54;;;;;;;4.50;4.10;;;;;;;;;;6158061;28;20289;-70
2024/01/20 12:34:58;;;;;;;4.30;3.93;;;;;;;;;;6136442;29;20470;-70
2024/01/20 12:38:04;;;;;;;4.30;4.03;;;;;;;;;;6130357;29;20313;-69
2024/01/20 12:41:08;;;;;;;4.43;4.13;;;;;;;;;;6137684;29;20306;-68
2024/01/20 12:44:12;;;;;;;4.60;4.20;;;;;;;;;;6136911;29;20596;-69
2024/01/20 12:47:16;;;;;;;4.33;3.97;;;;;;;;;;6137322;29;20303;-68
2024/01/20 12:50:20;;;;;;;4.40;4.00;;;;;;;;;;6136757;29;20310;-70
2024/01/20 12:53:25;;;;;;;4.37;4.13;;;;;;;;;;6130184;29;20301;-69
2024/01/20 12:56:30;;;;;;;4.57;4.27;;;;;;;;;;6137156;29;20295;-69
2024/01/20 12:59:34;;;;;;;4.57;4.17;;;;;;;;;;6135814;29;20298;-69
2024/01/20 13:02:38;;;;;;;4.53;4.13;;;;;;;;;;6137195;29;20306;-69
2024/01/20 13:05:43;;;;;;;4.20;3.90;;;;;;;;;;6136526;29;20362;-70
2024/01/20 13:08:49;;;;;;;4.17;3.87;;;;;;;;;;6136628;29;20478;-70
2024/01/20 13:11:53;;;;;;;4.40;4.10;;;;;;;;;;6139375;28;20308;-67
2024/01/20 13:14:57;;;;;;;4.50;4.20;;;;;;;;;;6158640;28;20296;-68
2024/01/20 13:18:01;;;;;;;4.10;3.90;;;;;;;;;;6160335;28;20286;-70
2024/01/20 13:21:06;;;;;;;4.27;4.00;;;;;;;;;;6160819;28;20309;-70
2024/01/20 13:24:11;;;;;;;4.47;4.07;;;;;;;;;;6158142;28;20591;-72
2024/01/20 13:27:15;;;;;;;4.00;3.80;;;;;;;;;;6161122;28;20294;-71
2024/01/20 13:30:19;;;;;;;5.10;4.43;;;;;;;;;;6159635;28;20301;-71
2024/01/20 13:33:24;;;;;;;5.50;4.50;;;;;;;;;;6142758;28;20305;-71
2024/01/20 13:36:29;;;;;;;4.20;3.90;;;;;;;;;;6135806;29;20298;-70
2024/01/20 13:39:34;;;;;;;5.07;4.60;;;;;;;;;;6136660;29;20304;-72
2024/01/20 13:42:38;;;;;;;4.03;3.73;;;;;;;;;;6136868;29;20391;-72
2024/01/20 13:45:47;;;;;;;4.93;3.93;;;;;;;;;;6136148;29;20302;-70
2024/01/20 13:48:51;;;;;;;4.90;4.07;;;;;;;;;;6135629;29;20587;-69
2024/01/20 13:51:55;;;;;;;5.17;4.37;;;;;;;;;;6136609;29;20298;-71
2024/01/20 13:55:00;;;;;;;5.40;4.80;;;;;;;;;;6134561;29;20290;-71
2024/01/20 13:58:04;;;;;;;5.30;4.80;;;;;;;;;;6135483;29;20298;-70
2024/01/20 14:01:08;;;;;;;5.77;5.00;;;;;;;;;;6136690;29;20309;-70
2024/01/20 14:04:13;;;;;;;7.10;5.23;;;;;;;;;;6134641;29;20302;-71
2024/01/20 14:07:17;;;;;;;5.50;5.00;;;;;;;;;;6122850;29;20310;-71
2024/01/20 14:10:23;;;;;;;5.33;4.70;;;;;;;;;;6147856;29;20292;-72
2024/01/20 14:13:28;;;;;;;5.93;5.33;;;;;;;;;;6146516;28;20296;-70
2024/01/20 14:16:31;;;;;;;6.53;4.87;;;;;;;;;;6164973;28;20332;-71
2024/01/20 14:19:37;;;;;;;7.17;5.10;;;;;;;;;;6164402;28;20300;-72
2024/01/20 14:22:41;;;;;;;6.50;4.50;;;;;;;;;;6163923;28;20308;-70
2024/01/20 14:25:47;;;;;;;5.63;4.73;;;;;;;;;;6155582;28;20486;-70
2024/01/20 14:28:51;;;;;;;4.80;4.20;;;;;;;;;;6164099;28;20307;-69
2024/01/20 14:31:55;;;;;;;4.33;4.03;;;;;;;;;;6163998;28;20295;-69
2024/01/20 14:34:59;;;;;;;4.40;4.00;;;;;;;;;;6163742;28;20293;-70
2024/01/20 14:38:04;;;;;;;3.90;3.60;;;;;;;;;;6162666;28;20305;-70
2024/01/20 14:41:10;;;;;;;4.27;3.97;;;;;;;;;;6164355;28;20293;-70
2024/01/20 14:44:14;;;;;;;3.93;3.63;;;;;;;;;;6163745;28;20313;-70
2024/01/20 14:47:17;;;;;;;4.00;3.67;;;;;;;;;;6163576;28;20305;-70
2024/01/20 14:50:21;;;;;;;4.10;3.80;;;;;;;;;;6161608;28;20304;-69
2024/01/20 14:53:25;;;;;;;3.87;3.67;;;;;;;;;;6163170;28;20289;-70
2024/01/20 14:56:31;;;;;;;4.13;3.73;;;;;;;;;;6163652;28;20323;-69
2024/01/20 14:59:35;;;;;;;4.00;3.80;;;;;;;;;;6161013;28;20250;-69
2024/01/20 15:02:39;;;;;;;3.73;3.43;;;;;;;;;;6163256;28;20308;-70
2024/01/20 15:05:42;;;;;;;3.90;3.60;;;;;;;;;;6162309;28;20305;-69
2024/01/20 15:08:47;;;;;;;4.10;3.80;;;;;;;;;;6162543;28;20293;-69
2024/01/20 15:11:52;;;;;;;3.80;3.50;;;;;;;;;;6163093;28;20300;-69
2024/01/20 15:14:56;;;;;;;4.00;3.70;;;;;;;;;;6162890;28;20300;-70
2024/01/20 15:18:00;;;;;;;5.50;3.87;;;;;;;;;;6161850;28;20302;-69
2024/01/20 15:21:05;;;;;;;3.83;3.57;;;;;;;;;;6163020;28;20293;-70
2024/01/20 15:24:09;;;;;;;4.50;4.20;;;;;;;;;;6162211;28;20596;-70
2024/01/20 15:27:14;;;;;;;3.97;3.77;;;;;;;;;;6162837;28;20293;-70
2024/01/20 15:30:18;;;;;;;3.97;3.67;;;;;;;;;;6135417;28;20301;-71
2024/01/20 15:33:22;;;;;;;4.73;4.33;;;;;;;;;;6145708;28;20305;-70
2024/01/20 15:36:27;;;;;;;5.80;4.10;;;;;;;;;;6121684;29;20300;-71
2024/01/20 15:39:31;;;;;;;4.17;3.90;;;;;;;;;;6132904;29;20594;-71
2024/01/20 15:42:36;;;;;;;4.30;4.00;;;;;;;;;;6136751;29;20355;-71
2024/01/20 15:45:41;;;;;;;4.57;4.20;;;;;;;;;;6130526;29;20440;-71
2024/01/20 15:48:45;;;;;;;4.03;3.83;;;;;;;;;;6135459;29;20318;-71
2024/01/20 15:51:50;;;;;;;5.80;4.27;;;;;;;;;;6134049;29;20293;-70
2024/01/20 15:54:54;;;;;;;4.13;3.83;;;;;;;;;;6138166;29;20456;-70
2024/01/20 15:57:59;;;;;;;6.20;4.30;;;;;;;;;;6136951;29;20602;-70
2024/01/20 16:01:03;;;;;;;4.53;4.23;;;;;;;;;;6129353;29;20330;-72
2024/01/20 16:04:07;;;;;;;4.47;4.20;;;;;;;;;;6137437;29;20304;-70
2024/01/20 16:07:12;;;;;;;4.90;4.40;;;;;;;;;;6138006;29;20597;-70
2024/01/20 16:10:19;;;;;;;4.77;4.37;;;;;;;;;;6144548;29;20306;-70
2024/01/20 16:13:24;;;;;;;4.33;4.03;;;;;;;;;;6161434;28;20515;-70
2024/01/20 16:16:28;;;;;;;4.70;4.30;;;;;;;;;;6161757;28;20301;-70
2024/01/20 16:19:32;;;;;;;4.07;3.77;;;;;;;;;;6143115;29;20621;-70
2024/01/20 16:22:36;;;;;;;4.70;4.17;;;;;;;;;;6161216;28;20299;-70
2024/01/20 16:25:40;;;;;;;3.63;3.43;;;;;;;;;;6161115;28;20307;-70
2024/01/20 16:28:45;;;;;;;4.07;3.73;;;;;;;;;;6161155;28;20298;-70
2024/01/20 16:31:51;;;;;;;6.07;4.47;;;;;;;;;;6158006;28;20297;-69
2024/01/20 16:34:55;;;;;;;6.07;4.40;;;;;;;;;;6137127;29;20297;-71
2024/01/20 16:37:59;;;;;;;4.97;4.57;;;;;;;;;;6136849;29;20291;-70
2024/01/20 16:41:03;;;;;;;5.67;4.27;;;;;;;;;;6135991;29;20297;-69
2024/01/20 16:44:08;;;;;;;4.63;4.17;;;;;;;;;;6136795;29;20301;-69
2024/01/20 16:47:12;;;;;;;4.57;3.97;;;;;;;;;;6137283;29;20297;-69
2024/01/20 16:50:16;;;;;;;5.00;4.47;;;;;;;;;;6136197;29;20317;-69
2024/01/20 16:53:20;;;;;;;6.30;4.10;;;;;;;;;;6136690;29;20298;-68
2024/01/20 16:56:24;;;;;;;5.53;4.80;;;;;;;;;;6137206;29;20317;-68
2024/01/20 16:59:30;;;;;;;5.00;4.47;;;;;;;;;;6136898;29;20301;-69
2024/01/20 17:02:34;;;;;;;5.10;4.50;;;;;;;;;;6137491;29;20345;-77
2024/01/20 17:05:40;;;;;;;5.07;4.57;;;;;;;;;;6187910;23;20312;-89
2024/01/20 17:08:47;;;;;;;5.20;4.70;;;;;;;;;;6131066;28;20301;-88
2024/01/20 17:11:59;;;;;;;4.80;4.40;;;;;;;;;;6147016;28;20292;-87
2024/01/20 17:15:08;;;;;;;5.03;4.57;;;;;;;;;;6171022;28;20298;-87
2024/01/20 17:18:14;;;;;;;5.13;4.73;;;;;;;;;;6169197;28;20296;-86
2024/01/20 17:21:23;;;;;;;5.10;4.67;;;;;;;;;;6155570;28;20481;-90
2024/01/20 17:24:33;;;;;;;7.00;5.03;;;;;;;;;;6149530;28;20299;-87
2024/01/20 17:27:39;;;;;;;5.23;4.70;;;;;;;;;;6174585;28;20631;-88
2024/01/20 17:30:46;;;;;;;5.47;4.60;;;;;;;;;;6169142;28;20291;-87
2024/01/20 17:33:51;;;;;;;6.87;4.60;;;;;;;;;;6170894;28;20292;-87
2024/01/20 17:41:34;;;;;;;9.43;7.10;;;;;;;;;;6017318;29;20493;-90
2024/01/20 17:44:38;;;;;;;6.33;5.53;;;;;;;;;;6145943;28;20288;-73
2024/01/20 17:47:45;;;;;;;5.63;5.10;;;;;;;;;;6166367;28;20269;-75
2024/01/20 17:50:51;;;;;;;5.80;5.20;;;;;;;;;;6166284;28;20272;-72
2024/01/20 17:53:56;;;;;;;6.33;4.80;;;;;;;;;;6166467;28;20608;-74
2024/01/20 17:57:00;;;;;;;7.37;5.00;;;;;;;;;;6166926;28;20240;-72
2024/01/20 18:00:05;;;;;;;6.30;5.13;;;;;;;;;;6164194;28;20462;-72
2024/01/20 18:03:16;;;;;;;8.33;5.20;;;;;;;;;;6166284;28;20338;-74
2024/01/20 18:06:20;;;;;;;7.07;5.17;;;;;;;;;;6166490;28;20302;-72
2024/01/20 18:09:25;;;;;;;5.33;4.83;;;;;;;;;;6165881;28;20300;-71
2024/01/20 18:12:28;;;;;;;10.70;5.50;;;;;;;;;;6166212;28;20585;-72
2024/01/20 18:15:32;;;;;;;7.63;5.00;;;;;;;;;;6157622;28;20299;-70
2024/01/20 18:18:38;;;;;;;5.97;5.40;;;;;;;;;;6145725;29;20405;-71
2024/01/20 18:21:45;;;;;;;9.03;5.57;;;;;;;;;;6166357;28;20306;-71
2024/01/20 18:24:49;;;;;;;8.67;5.67;;;;;;;;;;6165622;28;20289;-72
2024/01/20 18:27:53;;;;;;;9.80;5.70;;;;;;;;;;6165348;28;20305;-72